createdAt,value
2018-05-23T00:02:04.799Z,34.77
2018-05-23T00:04:33.832Z,35.80
2018-05-23T00:07:02.085Z,36.23
2018-05-23T00:09:30.315Z,36.00
2018-05-23T00:12:00.099Z,37.17
2018-05-23T00:14:28.335Z,34.73
2018-05-23T00:16:57.922Z,35.70
2018-05-23T00:19:26.480Z,35.40
2018-05-23T00:21:54.728Z,35.40
2018-05-23T00:24:23.010Z,36.33
2018-05-23T00:26:52.759Z,37.97
2018-05-23T00:29:21.000Z,36.10
2018-05-23T00:31:49.668Z,38.13
2018-05-23T00:34:17.908Z,37.03
2018-05-23T00:36:46.148Z,40.63
2018-05-23T00:39:15.562Z,35.53
2018-05-23T00:41:43.799Z,35.57
2018-05-23T00:44:13.383Z,35.37
2018-05-23T00:46:43.883Z,34.57
2018-05-23T00:49:12.879Z,34.73
2018-05-23T00:51:41.879Z,40.80
2018-05-23T00:54:10.152Z,39.97
2018-05-23T00:56:38.409Z,41.17
2018-05-23T00:59:08.029Z,41.27
2018-05-23T01:01:36.577Z,40.37
2018-05-23T01:04:04.835Z,39.37
2018-05-23T01:06:33.071Z,43.43
2018-05-23T01:09:01.340Z,41.87
2018-05-23T01:11:29.580Z,43.40
2018-05-23T01:13:57.814Z,42.30
2018-05-23T01:16:26.087Z,44.00
2018-05-23T01:18:55.095Z,44.70
2018-05-23T01:21:24.700Z,41.40
2018-05-23T01:23:54.364Z,44.90
2018-05-23T01:26:24.129Z,39.23
2018-05-23T01:28:52.393Z,41.13
2018-05-23T01:31:20.672Z,45.57
2018-05-23T01:33:48.902Z,45.83
2018-05-23T01:36:18.284Z,45.43
2018-05-23T01:38:46.564Z,45.97
2018-05-23T01:41:14.804Z,43.20
2018-05-23T01:43:43.049Z,42.77
2018-05-23T01:46:11.326Z,48.60
2018-05-23T01:48:52.557Z,44.77
2018-05-23T01:51:20.887Z,44.47
2018-05-23T01:53:49.127Z,46.70
2018-05-23T01:56:18.879Z,47.97
2018-05-23T01:58:47.147Z,45.17
2018-05-23T02:01:15.383Z,48.10
2018-05-23T02:03:43.643Z,48.20
2018-05-23T02:06:11.922Z,48.27
2018-05-23T02:08:40.159Z,49.80
2018-05-23T02:11:09.550Z,47.53
2018-05-23T02:13:37.829Z,47.83
2018-05-23T02:16:06.072Z,46.60
2018-05-23T02:18:34.306Z,48.60
2018-05-23T02:21:02.602Z,49.57
2018-05-23T02:23:31.990Z,52.03
2018-05-23T02:26:00.237Z,48.20
2018-05-23T02:28:28.909Z,48.00
2018-05-23T02:30:57.152Z,49.77
2018-05-23T02:33:25.411Z,50.53
2018-05-23T02:35:53.685Z,51.67
2018-05-23T02:38:22.696Z,48.23
2018-05-23T02:40:51.709Z,51.50
2018-05-23T02:43:19.985Z,51.40
2018-05-23T02:45:49.396Z,51.73
2018-05-23T02:48:17.629Z,53.57
2018-05-23T02:50:46.300Z,51.10
2018-05-23T02:53:16.072Z,53.50
2018-05-23T02:55:45.440Z,50.57
2018-05-23T02:58:13.721Z,50.50
2018-05-23T03:00:41.997Z,53.77
2018-05-23T03:03:11.740Z,52.90
2018-05-23T03:05:40.016Z,53.37
2018-05-23T03:08:08.275Z,57.77
2018-05-23T03:10:36.521Z,55.50
2018-05-23T03:13:04.784Z,54.70
2018-05-23T03:15:33.015Z,56.13
2018-05-23T03:18:01.261Z,52.50
2018-05-23T03:20:29.541Z,51.80
2018-05-23T03:22:59.140Z,51.13
2018-05-23T03:25:27.271Z,55.27
2018-05-23T03:27:57.127Z,54.30
2018-05-23T03:30:26.012Z,53.73
2018-05-23T03:32:55.407Z,51.10
2018-05-23T03:35:23.689Z,55.73
2018-05-23T03:37:51.928Z,56.27
2018-05-23T03:40:20.163Z,52.47
2018-05-23T03:42:48.427Z,54.60
2018-05-23T03:45:16.675Z,51.40
2018-05-23T03:47:45.824Z,54.10
2018-05-23T03:50:14.096Z,53.63
2018-05-23T03:52:43.099Z,54.83
2018-05-23T03:55:12.632Z,51.77
2018-05-23T03:57:42.380Z,50.37
2018-05-23T04:03:24.659Z,53.90
2018-05-23T04:06:05.071Z,53.53
2018-05-23T04:08:33.317Z,50.00
2018-05-23T04:11:01.551Z,51.20
2018-05-23T04:13:29.884Z,48.00
2018-05-23T04:15:59.488Z,48.93
2018-05-23T04:18:28.960Z,47.67
2018-05-23T04:20:58.252Z,50.17
2018-05-23T04:23:26.491Z,45.50
2018-05-23T04:25:56.248Z,47.17
2018-05-23T04:28:24.528Z,47.47
2018-05-23T04:30:52.775Z,45.30
2018-05-23T04:33:22.358Z,40.67
2018-05-23T04:35:50.660Z,41.63
2018-05-23T04:38:18.913Z,41.57
2018-05-23T04:40:47.152Z,44.90
2018-05-23T04:43:16.776Z,41.57
2018-05-23T04:45:46.247Z,40.60
2018-05-23T04:48:14.758Z,37.83
2018-05-23T04:50:43.043Z,36.53
2018-05-23T04:53:11.296Z,36.77
2018-05-23T04:55:41.053Z,35.00
2018-05-23T04:58:09.321Z,32.70
2018-05-23T05:00:38.904Z,33.53
2018-05-23T05:03:07.420Z,30.73
2018-05-23T05:05:35.691Z,30.10
2018-05-23T05:08:05.283Z,31.50
2018-05-23T05:10:33.787Z,30.97
2018-05-23T05:13:02.071Z,30.93
2018-05-23T05:15:30.337Z,28.50
2018-05-23T05:17:58.579Z,31.07
2018-05-23T05:20:26.916Z,29.27
2018-05-23T05:22:56.295Z,29.67
2018-05-23T05:25:24.540Z,26.37
2018-05-23T05:27:54.312Z,27.47
2018-05-23T05:30:22.564Z,26.57
2018-05-23T05:32:50.799Z,27.50
2018-05-23T05:35:19.074Z,27.10
2018-05-23T05:37:48.827Z,27.30
2018-05-23T05:40:17.839Z,28.13
2018-05-23T05:42:47.242Z,27.03
2018-05-23T05:45:15.488Z,26.43
2018-05-23T05:47:43.736Z,29.40
2018-05-23T05:50:12.024Z,28.20
2018-05-23T05:52:40.251Z,28.90
2018-05-23T05:55:08.509Z,28.73
2018-05-23T05:57:36.920Z,26.43
2018-05-23T06:00:05.930Z,25.70
2018-05-23T06:02:34.163Z,28.40
2018-05-23T06:05:02.761Z,28.37
2018-05-23T06:07:31.002Z,28.20
2018-05-23T06:10:00.461Z,27.50
2018-05-23T06:12:28.643Z,26.90
2018-05-23T06:14:56.888Z,27.33
2018-05-23T06:17:25.719Z,25.90
2018-05-23T06:19:55.651Z,28.00
2018-05-23T06:22:25.090Z,28.87
2018-05-23T06:24:53.263Z,29.63
2018-05-23T06:27:22.902Z,26.83
2018-05-23T06:29:52.151Z,27.67
2018-05-23T06:32:20.398Z,26.87
2018-05-23T06:34:49.428Z,26.57
2018-05-23T06:37:17.671Z,26.33
2018-05-23T06:39:45.898Z,27.30
2018-05-23T06:42:15.689Z,29.40
2018-05-23T06:44:43.932Z,31.97
2018-05-23T06:47:12.969Z,27.90
2018-05-23T06:49:41.981Z,28.30
2018-05-23T06:52:10.986Z,28.23
2018-05-23T06:54:40.383Z,30.00
2018-05-23T06:57:08.624Z,27.57
2018-05-23T06:59:38.383Z,31.57
2018-05-23T07:02:06.668Z,32.70
2018-05-23T07:04:35.672Z,32.33
2018-05-23T07:07:03.911Z,27.90
2018-05-23T07:09:32.942Z,26.50
2018-05-23T07:12:01.175Z,25.93
2018-05-23T07:14:29.424Z,30.83
2018-05-23T07:16:57.686Z,30.90
2018-05-23T07:19:25.940Z,28.03
2018-05-23T07:21:54.586Z,28.33
2018-05-23T07:24:24.220Z,31.93
2018-05-23T07:26:52.339Z,27.70
2018-05-23T07:29:22.144Z,32.30
2018-05-23T07:31:50.575Z,32.10
2018-05-23T07:34:18.664Z,32.17
2018-05-23T07:36:46.908Z,28.63
2018-05-23T07:39:15.184Z,30.60
2018-05-23T07:41:44.560Z,31.60
2018-05-23T07:44:14.504Z,28.67
2018-05-23T07:46:42.778Z,29.97
2018-05-23T07:49:11.015Z,32.13
2018-05-23T07:51:39.254Z,33.60
2018-05-23T07:54:09.039Z,32.27
2018-05-23T07:56:37.372Z,31.47
2018-05-23T07:59:05.556Z,31.63
2018-05-23T08:01:33.984Z,31.77
2018-05-23T08:04:02.239Z,29.33
2018-05-23T08:06:31.977Z,30.13
2018-05-23T08:09:00.239Z,31.53
2018-05-23T08:11:29.996Z,29.47
2018-05-23T08:13:58.242Z,30.60
2018-05-23T08:16:26.898Z,31.60
2018-05-23T08:18:55.912Z,31.00
2018-05-23T08:21:24.915Z,32.30
2018-05-23T08:23:54.342Z,32.07
2018-05-23T08:26:22.583Z,29.97
2018-05-23T08:28:50.833Z,32.30
2018-05-23T08:31:19.112Z,30.83
2018-05-23T08:33:47.357Z,27.93
2018-05-23T08:36:16.807Z,30.80
2018-05-23T08:38:45.023Z,30.10
2018-05-23T08:41:13.264Z,30.30
2018-05-23T08:43:41.507Z,33.60
2018-05-23T08:46:09.815Z,34.00
2018-05-23T08:48:39.542Z,40.10
2018-05-23T08:51:07.785Z,45.07
2018-05-23T08:53:36.066Z,33.90
2018-05-23T08:56:05.803Z,31.83
2018-05-23T08:58:34.049Z,24.13
2018-05-23T09:01:02.311Z,23.57
2018-05-23T09:03:30.551Z,23.17
2018-05-23T09:05:58.790Z,24.03
2018-05-23T09:08:27.059Z,23.00
2018-05-23T09:10:56.438Z,24.73
2018-05-23T09:13:24.819Z,25.47
2018-05-23T09:15:53.068Z,25.40
2018-05-23T09:18:21.318Z,23.43
2018-05-23T09:20:49.584Z,24.30
2018-05-23T09:23:17.832Z,23.97
2018-05-23T09:25:47.259Z,24.70
2018-05-23T09:28:16.309Z,24.93
2018-05-23T09:30:45.320Z,23.23
2018-05-23T09:33:13.597Z,23.37
2018-05-23T09:35:41.835Z,22.33
2018-05-23T09:38:11.434Z,21.03
2018-05-23T09:40:39.989Z,21.17
2018-05-23T09:43:08.228Z,21.23
2018-05-23T09:45:37.980Z,20.03
2018-05-23T09:48:07.624Z,19.67
2018-05-23T09:50:36.140Z,15.73
2018-05-23T09:53:05.725Z,16.53
2018-05-23T09:55:35.374Z,14.60
2018-05-23T09:58:04.971Z,15.70
2018-05-23T10:00:33.108Z,15.97
2018-05-23T10:03:02.903Z,13.87
2018-05-23T10:05:31.180Z,14.13
2018-05-23T10:07:59.426Z,12.93
2018-05-23T10:10:29.203Z,14.60
2018-05-23T10:12:58.824Z,15.00
2018-05-23T10:15:28.075Z,13.87
2018-05-23T10:17:56.324Z,11.87
2018-05-23T10:20:25.752Z,12.33
2018-05-23T10:22:55.504Z,12.50
2018-05-23T10:25:24.507Z,12.07
2018-05-23T10:27:53.916Z,11.87
2018-05-23T10:30:22.166Z,14.00
2018-05-23T10:32:50.412Z,13.57
2018-05-23T10:35:18.680Z,14.03
2018-05-23T10:37:46.919Z,14.27
2018-05-23T10:40:15.220Z,13.20
2018-05-23T10:42:44.595Z,17.47
2018-05-23T10:45:12.835Z,18.40
2018-05-23T10:47:41.103Z,12.87
2018-05-23T10:50:09.347Z,12.70
2018-05-23T10:52:37.592Z,11.80
2018-05-23T10:55:06.286Z,11.87
2018-05-23T10:57:35.297Z,13.20
2018-05-23T11:00:03.590Z,9.63
2018-05-23T11:02:31.796Z,8.60
2018-05-23T11:05:00.034Z,7.10
2018-05-23T11:07:28.328Z,7.07
2018-05-23T11:09:56.541Z,7.63
2018-05-23T11:12:24.786Z,6.97
2018-05-23T11:14:53.112Z,7.33
2018-05-23T11:17:22.780Z,7.07
2018-05-23T11:19:51.025Z,7.77
2018-05-23T11:22:19.278Z,10.10
2018-05-23T11:24:48.299Z,7.57
2018-05-23T11:27:16.541Z,7.07
2018-05-23T11:29:44.781Z,7.60
2018-05-23T11:32:13.807Z,6.20
2018-05-23T11:34:42.807Z,5.20
2018-05-23T11:37:11.804Z,5.80
2018-05-23T11:39:40.075Z,3.83
2018-05-23T11:42:09.071Z,3.97
2018-05-23T11:44:38.650Z,4.40
2018-05-23T11:47:07.929Z,5.10
2018-05-23T11:49:36.557Z,4.67
2018-05-23T11:52:05.558Z,5.20
2018-05-23T11:54:33.896Z,3.90
2018-05-23T11:57:02.046Z,3.70
2018-05-23T11:59:31.047Z,3.37
2018-05-23T12:02:00.079Z,3.77
2018-05-23T12:04:29.081Z,4.03
2018-05-23T12:06:57.311Z,4.17
2018-05-23T12:09:27.358Z,4.20
2018-05-23T12:11:56.600Z,4.23
2018-05-23T12:14:24.832Z,4.23
2018-05-23T12:16:53.101Z,4.97
2018-05-23T12:19:21.331Z,4.53
2018-05-23T12:21:49.574Z,4.13
2018-05-23T12:24:18.981Z,4.43
2018-05-23T12:26:47.980Z,3.77
2018-05-23T12:29:16.212Z,4.17
2018-05-23T12:31:45.607Z,4.17
2018-05-23T12:34:13.836Z,4.43
2018-05-23T12:36:42.074Z,4.37
2018-05-23T12:39:10.349Z,3.40
2018-05-23T12:41:38.975Z,4.80
2018-05-23T12:44:07.976Z,6.20
2018-05-23T12:46:37.023Z,4.17
2018-05-23T12:49:05.261Z,5.73
2018-05-23T12:51:34.259Z,4.37
2018-05-23T12:54:02.536Z,3.53
2018-05-23T12:56:30.770Z,3.60
2018-05-23T12:58:59.000Z,3.67
2018-05-23T13:01:27.275Z,4.00
2018-05-23T13:03:55.499Z,3.60
2018-05-23T13:06:23.732Z,3.90
2018-05-23T13:08:52.016Z,3.80
2018-05-23T13:11:21.387Z,4.23
2018-05-23T13:13:49.633Z,5.90
2018-05-23T13:16:17.897Z,4.47
2018-05-23T13:18:46.128Z,4.87
2018-05-23T13:21:14.366Z,4.70
2018-05-23T13:23:42.636Z,4.70
2018-05-23T13:26:10.867Z,4.97
2018-05-23T13:28:39.859Z,5.10
2018-05-23T13:31:08.127Z,5.10
2018-05-23T13:33:36.359Z,4.73
2018-05-23T13:36:05.935Z,5.30
2018-05-23T13:38:34.492Z,7.73
2018-05-23T13:41:03.200Z,5.97
2018-05-23T13:43:31.431Z,7.30
2018-05-23T13:46:01.046Z,5.73
2018-05-23T13:48:29.160Z,6.30
2018-05-23T13:50:58.909Z,6.57
2018-05-23T13:53:27.184Z,7.37
2018-05-23T13:55:55.424Z,5.90
2018-05-23T13:58:23.653Z,7.97
2018-05-23T14:00:52.319Z,5.70
2018-05-23T14:03:21.900Z,5.60
2018-05-23T14:05:50.004Z,7.07
2018-05-23T14:08:19.786Z,7.67
2018-05-23T14:10:48.021Z,6.40
2018-05-23T14:13:16.260Z,4.63
2018-05-23T14:15:44.524Z,4.87
2018-05-23T14:18:12.766Z,5.43
2018-05-23T14:20:41.000Z,7.37
2018-05-23T14:23:10.764Z,5.50
2018-05-23T14:25:38.991Z,5.30
2018-05-23T14:28:08.745Z,9.17
2018-05-23T14:30:37.021Z,5.77
2018-05-23T14:33:06.603Z,7.80
2018-05-23T14:35:35.103Z,7.10
2018-05-23T14:38:03.377Z,5.80
2018-05-23T14:40:31.619Z,5.27
2018-05-23T14:42:59.862Z,11.00
2018-05-23T14:45:28.125Z,7.90
2018-05-23T14:47:56.361Z,6.50
2018-05-23T14:50:24.636Z,8.13
2018-05-23T14:52:53.635Z,8.00
2018-05-23T14:55:21.863Z,7.63
2018-05-23T14:57:50.134Z,7.37
2018-05-23T15:00:18.376Z,9.17
2018-05-23T15:02:46.606Z,9.13
2018-05-23T15:05:14.890Z,10.23
2018-05-23T15:07:43.524Z,8.93
2018-05-23T15:10:12.526Z,9.00
2018-05-23T15:12:40.791Z,9.60
2018-05-23T15:15:09.018Z,18.53
2018-05-23T15:17:37.643Z,8.47
2018-05-23T15:20:06.103Z,11.47
2018-05-23T15:22:34.236Z,8.43
2018-05-23T15:25:03.978Z,11.37
2018-05-23T15:27:32.232Z,9.67
2018-05-23T15:30:00.480Z,8.60
2018-05-23T15:32:30.215Z,9.23
2018-05-23T15:34:58.475Z,10.23
2018-05-23T15:37:26.707Z,9.10
2018-05-23T15:39:54.963Z,9.67
2018-05-23T15:42:24.731Z,8.90
2018-05-23T15:44:52.967Z,10.07
2018-05-23T15:47:22.359Z,8.37
2018-05-23T15:49:50.623Z,8.20
2018-05-23T15:52:18.856Z,8.30
2018-05-23T15:54:48.467Z,11.23
2018-05-23T15:57:17.375Z,10.10
2018-05-23T15:59:45.616Z,13.60
2018-05-23T16:02:13.876Z,8.70
2018-05-23T16:04:43.263Z,8.53
2018-05-23T16:07:11.500Z,9.70
2018-05-23T16:09:39.735Z,11.60
2018-05-23T16:12:08.003Z,8.17
2018-05-23T16:14:36.252Z,8.30
2018-05-23T16:17:04.493Z,7.87
2018-05-23T16:19:34.343Z,9.60
2018-05-23T16:22:02.586Z,8.63
2018-05-23T16:24:30.819Z,7.80
2018-05-23T16:27:00.212Z,7.17
2018-05-23T16:29:28.440Z,8.80
2018-05-23T16:31:56.682Z,7.07
2018-05-23T16:34:24.953Z,7.47
2018-05-23T16:36:53.183Z,5.90
2018-05-23T16:39:21.413Z,6.73
2018-05-23T16:41:49.672Z,6.33
2018-05-23T16:44:19.259Z,6.40
2018-05-23T16:46:47.359Z,6.90
2018-05-23T16:49:16.020Z,6.27
2018-05-23T16:51:45.602Z,8.07
2018-05-23T16:54:13.744Z,7.10
2018-05-23T16:56:43.504Z,8.20
2018-05-23T16:59:11.744Z,8.80
2018-05-23T17:01:41.323Z,6.80
2018-05-23T17:04:09.869Z,7.40
2018-05-23T17:06:38.097Z,6.20
2018-05-23T17:09:06.331Z,6.47
2018-05-23T17:11:34.592Z,5.70
2018-05-23T17:14:02.833Z,5.50
2018-05-23T17:16:31.069Z,6.80
2018-05-23T17:18:59.361Z,8.80
2018-05-23T17:21:28.355Z,8.67
2018-05-23T17:23:56.588Z,7.67
2018-05-23T17:26:24.871Z,8.60
2018-05-23T17:28:53.103Z,7.60
2018-05-23T17:31:21.336Z,6.90
2018-05-23T17:33:51.119Z,5.23
2018-05-23T17:36:19.433Z,5.17
2018-05-23T17:38:47.594Z,4.73
2018-05-23T17:41:15.863Z,4.57
2018-05-23T17:43:44.089Z,4.17
2018-05-23T17:46:13.676Z,5.23
2018-05-23T17:48:41.842Z,4.73
2018-05-23T17:51:10.072Z,4.40
2018-05-23T17:53:38.313Z,4.40
2018-05-23T17:56:08.100Z,4.83
2018-05-23T17:58:36.336Z,4.40
2018-05-23T18:01:04.577Z,6.80
2018-05-23T18:03:32.870Z,7.00
2018-05-23T18:06:01.217Z,4.33
2018-05-23T18:08:29.345Z,4.10
2018-05-23T18:10:58.760Z,7.57
2018-05-23T18:13:28.344Z,4.27
2018-05-23T18:15:56.854Z,6.30
2018-05-23T18:18:25.133Z,5.80
2018-05-23T18:20:54.127Z,6.57
2018-05-23T18:23:23.194Z,4.57
2018-05-23T18:25:51.408Z,7.57
2018-05-23T18:28:21.075Z,8.00
2018-05-23T18:30:49.631Z,4.97
2018-05-23T18:33:17.921Z,3.80
2018-05-23T18:35:47.659Z,5.10
2018-05-23T18:38:17.247Z,7.80
2018-05-23T18:40:46.159Z,6.60
2018-05-23T18:43:14.387Z,3.60
2018-05-23T18:45:42.618Z,6.20
2018-05-23T18:48:12.407Z,7.67
2018-05-23T18:50:40.657Z,6.43
2018-05-23T18:53:09.656Z,4.93
2018-05-23T18:55:38.720Z,5.27
2018-05-23T18:58:06.977Z,4.97
2018-05-23T19:00:35.599Z,5.27
2018-05-23T19:03:05.007Z,6.97
2018-05-23T19:05:33.236Z,6.63
2018-05-23T19:08:02.232Z,8.57
2018-05-23T19:10:30.507Z,5.23
2018-05-23T19:12:59.518Z,29.40
2018-05-23T19:15:27.764Z,18.70
2018-05-23T19:17:56.803Z,5.50
2018-05-23T19:20:25.798Z,4.30
2018-05-23T19:22:54.027Z,9.23
2018-05-23T19:25:23.068Z,3.80
2018-05-23T19:27:52.075Z,4.37
2018-05-23T19:30:20.475Z,7.43
2018-05-23T19:32:50.249Z,4.97
2018-05-23T19:35:18.484Z,5.73
2018-05-23T19:37:46.720Z,4.70
2018-05-23T19:40:15.012Z,4.63
2018-05-23T19:42:43.240Z,4.67
2018-05-23T19:45:12.976Z,4.63
2018-05-23T19:47:41.661Z,6.90
2018-05-23T19:50:09.951Z,8.90
2018-05-23T19:52:38.284Z,48.67
2018-05-23T19:55:07.739Z,24.33
2018-05-23T19:57:37.545Z,5.57
2018-05-23T20:00:05.777Z,7.50
2018-05-23T20:02:34.055Z,5.17
2018-05-23T20:05:02.291Z,11.13
2018-05-23T20:07:32.252Z,7.03
2018-05-23T20:10:00.515Z,5.50
2018-05-23T20:12:28.752Z,4.80
2018-05-23T20:14:56.975Z,5.50
2018-05-23T20:17:25.256Z,5.47
2018-05-23T20:19:53.485Z,5.53
2018-05-23T20:22:22.477Z,4.90
2018-05-23T20:24:52.113Z,4.63
2018-05-23T20:27:21.001Z,5.40
2018-05-23T20:29:50.579Z,12.57
2018-05-23T20:32:19.151Z,71.43
2018-05-23T20:34:48.165Z,9.70
2018-05-23T20:37:17.908Z,6.13
2018-05-23T20:39:46.189Z,4.67
2018-05-23T20:42:14.419Z,9.20
2018-05-23T20:44:42.652Z,4.30
2018-05-23T20:47:11.728Z,5.13
2018-05-23T20:49:39.959Z,5.63
2018-05-23T20:52:08.188Z,4.50
2018-05-23T20:54:36.442Z,5.20
2018-05-23T20:57:06.267Z,4.57
2018-05-23T20:59:35.785Z,4.97
2018-05-23T21:02:04.442Z,4.43
2018-05-23T21:04:32.680Z,5.83
2018-05-23T21:07:02.320Z,5.37
2018-05-23T21:09:30.901Z,6.63
2018-05-23T21:11:59.137Z,3.90
2018-05-23T21:14:27.431Z,6.13
2018-05-23T21:16:57.009Z,5.30
2018-05-23T21:19:25.157Z,7.27
2018-05-23T21:21:54.440Z,5.77
2018-05-23T21:24:23.435Z,4.87
2018-05-23T21:26:51.743Z,6.10
2018-05-23T21:29:19.992Z,8.43
2018-05-23T21:31:49.728Z,5.33
2018-05-23T21:34:18.737Z,6.67
2018-05-23T21:36:46.996Z,8.70
2018-05-23T21:39:15.987Z,5.23
2018-05-23T21:41:44.985Z,5.57
2018-05-23T21:44:14.588Z,6.30
2018-05-23T21:46:42.696Z,5.47
2018-05-23T21:49:12.769Z,7.73
2018-05-23T21:51:40.921Z,5.90
2018-05-23T21:54:09.185Z,4.53
2018-05-23T21:56:37.485Z,5.37
2018-05-23T21:59:06.910Z,6.97
2018-05-23T22:01:35.099Z,6.57
2018-05-23T22:04:04.115Z,5.17
2018-05-23T22:06:32.343Z,6.10
2018-05-23T22:09:01.337Z,4.90
2018-05-23T22:11:29.604Z,5.57
2018-05-23T22:13:57.846Z,4.93
2018-05-23T22:16:27.423Z,8.03
2018-05-23T22:18:55.971Z,6.27
2018-05-23T22:21:24.216Z,6.90
2018-05-23T22:23:52.439Z,4.80
2018-05-23T22:26:22.059Z,7.77
2018-05-23T22:28:50.158Z,8.33
2018-05-23T22:31:18.425Z,6.63
2018-05-23T22:33:46.655Z,6.60
2018-05-23T22:36:15.284Z,5.10
2018-05-23T22:38:43.539Z,5.23
2018-05-23T22:41:13.121Z,5.63
2018-05-23T22:43:41.231Z,6.77
2018-05-23T22:46:09.508Z,5.10
2018-05-23T22:48:37.734Z,8.10
2018-05-23T22:51:07.470Z,6.80
2018-05-23T22:53:37.082Z,5.03
2018-05-23T22:56:05.582Z,8.10
2018-05-23T22:58:33.823Z,7.10
2018-05-23T23:01:02.103Z,5.80
2018-05-23T23:03:31.692Z,17.37
2018-05-23T23:05:59.811Z,52.80
2018-05-23T23:08:29.439Z,6.97
2018-05-23T23:10:59.051Z,5.63
2018-05-23T23:13:27.296Z,4.77
2018-05-23T23:15:56.903Z,4.87
2018-05-23T23:18:25.017Z,4.37
2018-05-23T23:20:53.269Z,5.43
2018-05-23T23:23:21.553Z,4.50
2018-05-23T23:25:49.788Z,7.70
2018-05-23T23:28:18.038Z,5.13
2018-05-23T23:30:47.820Z,7.20
2018-05-23T23:33:16.057Z,7.13
2018-05-23T23:35:44.311Z,5.23
2018-05-23T23:38:13.715Z,7.67
2018-05-23T23:40:41.943Z,4.83
2018-05-23T23:43:11.694Z,4.40
2018-05-23T23:45:39.959Z,3.83
2018-05-23T23:48:09.542Z,4.20
2018-05-23T23:50:40.011Z,4.33
2018-05-23T23:53:09.007Z,4.87
2018-05-23T23:55:38.627Z,4.97
2018-05-23T23:58:06.741Z,5.80
